sensor_id;sensor_type;location;lat;lon;timestamp;P1;durP1;ratioP1;P2;durP2;ratioP2
18776;SDS011;9517;51.174;4.160;2023-06-14T00:02:19;14.27;;;8.67;;
18776;SDS011;9517;51.174;4.160;2023-06-14T00:04:47;22.80;;;9.30;;
18776;SDS011;9517;51.174;4.160;2023-06-14T00:07:16;22.67;;;9.13;;
18776;SDS011;9517;51.174;4.160;2023-06-14T00:09:43;19.50;;;9.40;;
18776;SDS011;9517;51.174;4.160;2023-06-14T00:12:10;19.50;;;9.40;;
18776;SDS011;9517;51.174;4.160;2023-06-14T00:14:37;17.10;;;9.33;;
18776;SDS011;9517;51.174;4.160;2023-06-14T00:17:05;23.23;;;9.57;;
18776;SDS011;9517;51.174;4.160;2023-06-14T00:19:32;16.73;;;9.20;;
18776;SDS011;9517;51.174;4.160;2023-06-14T00:22:02;20.87;;;10.70;;
18776;SDS011;9517;51.174;4.160;2023-06-14T00:24:30;17.50;;;9.20;;
18776;SDS011;9517;51.174;4.160;2023-06-14T00:26:57;16.73;;;9.83;;
18776;SDS011;9517;51.174;4.160;2023-06-14T00:29:24;17.60;;;9.57;;
18776;SDS011;9517;51.174;4.160;2023-06-14T00:31:51;17.40;;;9.40;;
18776;SDS011;9517;51.174;4.160;2023-06-14T00:34:18;23.03;;;10.00;;
18776;SDS011;9517;51.174;4.160;2023-06-14T00:36:45;16.83;;;9.70;;
18776;SDS011;9517;51.174;4.160;2023-06-14T00:39:14;19.83;;;10.53;;
18776;SDS011;9517;51.174;4.160;2023-06-14T00:41:41;20.97;;;9.80;;
18776;SDS011;9517;51.174;4.160;2023-06-14T00:44:08;18.57;;;9.40;;
18776;SDS011;9517;51.174;4.160;2023-06-14T00:46:35;17.13;;;9.43;;
18776;SDS011;9517;51.174;4.160;2023-06-14T00:49:02;21.30;;;10.23;;
18776;SDS011;9517;51.174;4.160;2023-06-14T00:51:30;19.13;;;9.27;;
18776;SDS011;9517;51.174;4.160;2023-06-14T00:53:57;16.23;;;9.23;;
18776;SDS011;9517;51.174;4.160;2023-06-14T00:56:25;18.97;;;9.43;;
18776;SDS011;9517;51.174;4.160;2023-06-14T00:58:53;17.37;;;9.27;;
18776;SDS011;9517;51.174;4.160;2023-06-14T01:01:21;18.13;;;9.47;;
18776;SDS011;9517;51.174;4.160;2023-06-14T01:03:49;19.00;;;9.17;;
18776;SDS011;9517;51.174;4.160;2023-06-14T01:06:18;16.77;;;9.77;;
18776;SDS011;9517;51.174;4.160;2023-06-14T01:08:57;17.80;;;9.40;;
18776;SDS011;9517;51.174;4.160;2023-06-14T01:11:36;17.53;;;10.17;;
18776;SDS011;9517;51.174;4.160;2023-06-14T01:14:08;17.07;;;9.80;;
18776;SDS011;9517;51.174;4.160;2023-06-14T01:16:37;17.37;;;9.10;;
18776;SDS011;9517;51.174;4.160;2023-06-14T01:19:05;18.27;;;9.33;;
18776;SDS011;9517;51.174;4.160;2023-06-14T01:21:37;23.93;;;10.90;;
18776;SDS011;9517;51.174;4.160;2023-06-14T01:24:08;18.87;;;9.00;;
18776;SDS011;9517;51.174;4.160;2023-06-14T01:26:36;17.17;;;9.40;;
18776;SDS011;9517;51.174;4.160;2023-06-14T01:29:04;17.40;;;8.70;;
18776;SDS011;9517;51.174;4.160;2023-06-14T01:31:32;16.27;;;8.93;;
18776;SDS011;9517;51.174;4.160;2023-06-14T01:34:06;15.97;;;9.10;;
18776;SDS011;9517;51.174;4.160;2023-06-14T01:36:35;21.17;;;9.27;;
18776;SDS011;9517;51.174;4.160;2023-06-14T01:39:08;14.13;;;9.00;;
18776;SDS011;9517;51.174;4.160;2023-06-14T01:41:38;20.87;;;8.63;;
18776;SDS011;9517;51.174;4.160;2023-06-14T01:44:06;15.07;;;8.83;;
18776;SDS011;9517;51.174;4.160;2023-06-14T01:46:33;17.90;;;9.67;;
18776;SDS011;9517;51.174;4.160;2023-06-14T01:49:01;17.70;;;10.07;;
18776;SDS011;9517;51.174;4.160;2023-06-14T01:51:28;20.03;;;10.23;;
18776;SDS011;9517;51.174;4.160;2023-06-14T01:53:56;21.03;;;9.83;;
18776;SDS011;9517;51.174;4.160;2023-06-14T01:56:24;17.17;;;10.43;;
18776;SDS011;9517;51.174;4.160;2023-06-14T01:58:52;15.27;;;9.00;;
18776;SDS011;9517;51.174;4.160;2023-06-14T02:01:19;16.60;;;9.03;;
18776;SDS011;9517;51.174;4.160;2023-06-14T02:03:47;17.63;;;9.27;;
18776;SDS011;9517;51.174;4.160;2023-06-14T02:06:16;19.80;;;9.70;;
18776;SDS011;9517;51.174;4.160;2023-06-14T02:08:43;17.50;;;8.60;;
18776;SDS011;9517;51.174;4.160;2023-06-14T02:11:11;15.90;;;8.70;;
18776;SDS011;9517;51.174;4.160;2023-06-14T02:13:39;18.63;;;9.17;;
18776;SDS011;9517;51.174;4.160;2023-06-14T02:16:07;19.97;;;9.33;;
18776;SDS011;9517;51.174;4.160;2023-06-14T02:18:34;19.23;;;9.30;;
18776;SDS011;9517;51.174;4.160;2023-06-14T02:21:02;16.57;;;8.70;;
18776;SDS011;9517;51.174;4.160;2023-06-14T02:23:29;18.60;;;8.80;;
18776;SDS011;9517;51.174;4.160;2023-06-14T02:25:57;18.97;;;8.60;;
18776;SDS011;9517;51.174;4.160;2023-06-14T02:28:24;17.40;;;9.27;;
18776;SDS011;9517;51.174;4.160;2023-06-14T02:30:52;15.20;;;8.67;;
18776;SDS011;9517;51.174;4.160;2023-06-14T02:33:20;15.77;;;8.67;;
18776;SDS011;9517;51.174;4.160;2023-06-14T02:35:47;18.53;;;8.30;;
18776;SDS011;9517;51.174;4.160;2023-06-14T02:38:15;18.40;;;7.30;;
18776;SDS011;9517;51.174;4.160;2023-06-14T02:40:42;17.47;;;7.77;;
18776;SDS011;9517;51.174;4.160;2023-06-14T02:43:09;16.17;;;7.70;;
18776;SDS011;9517;51.174;4.160;2023-06-14T02:45:36;14.63;;;8.27;;
18776;SDS011;9517;51.174;4.160;2023-06-14T02:48:05;17.10;;;8.03;;
18776;SDS011;9517;51.174;4.160;2023-06-14T02:50:32;14.77;;;7.07;;
18776;SDS011;9517;51.174;4.160;2023-06-14T02:52:59;15.87;;;7.17;;
18776;SDS011;9517;51.174;4.160;2023-06-14T02:55:28;15.63;;;7.53;;
18776;SDS011;9517;51.174;4.160;2023-06-14T02:57:55;13.50;;;7.07;;
18776;SDS011;9517;51.174;4.160;2023-06-14T03:00:22;16.63;;;7.03;;
18776;SDS011;9517;51.174;4.160;2023-06-14T03:02:49;14.83;;;7.17;;
18776;SDS011;9517;51.174;4.160;2023-06-14T03:05:19;14.97;;;6.90;;
18776;SDS011;9517;51.174;4.160;2023-06-14T03:07:47;13.90;;;6.70;;
18776;SDS011;9517;51.174;4.160;2023-06-14T03:10:15;12.43;;;6.87;;
18776;SDS011;9517;51.174;4.160;2023-06-14T03:12:42;15.83;;;6.70;;
18776;SDS011;9517;51.174;4.160;2023-06-14T03:15:10;16.13;;;6.17;;
18776;SDS011;9517;51.174;4.160;2023-06-14T03:17:38;13.33;;;6.90;;
18776;SDS011;9517;51.174;4.160;2023-06-14T03:20:10;20.10;;;7.60;;
18776;SDS011;9517;51.174;4.160;2023-06-14T03:22:38;13.37;;;7.00;;
18776;SDS011;9517;51.174;4.160;2023-06-14T03:25:06;15.90;;;6.93;;
18776;SDS011;9517;51.174;4.160;2023-06-14T03:27:34;16.30;;;7.17;;
18776;SDS011;9517;51.174;4.160;2023-06-14T03:30:02;17.77;;;6.70;;
18776;SDS011;9517;51.174;4.160;2023-06-14T03:32:30;13.87;;;6.90;;
18776;SDS011;9517;51.174;4.160;2023-06-14T03:34:58;14.17;;;6.50;;
18776;SDS011;9517;51.174;4.160;2023-06-14T03:37:25;15.50;;;6.77;;
18776;SDS011;9517;51.174;4.160;2023-06-14T03:39:54;16.87;;;6.67;;
18776;SDS011;9517;51.174;4.160;2023-06-14T03:42:21;15.17;;;6.67;;
18776;SDS011;9517;51.174;4.160;2023-06-14T03:44:48;17.47;;;6.73;;
18776;SDS011;9517;51.174;4.160;2023-06-14T03:47:15;14.07;;;6.37;;
18776;SDS011;9517;51.174;4.160;2023-06-14T03:49:43;13.97;;;6.97;;
18776;SDS011;9517;51.174;4.160;2023-06-14T03:52:10;14.77;;;6.73;;
18776;SDS011;9517;51.174;4.160;2023-06-14T03:54:37;13.03;;;6.30;;
18776;SDS011;9517;51.174;4.160;2023-06-14T03:57:05;14.60;;;7.17;;
18776;SDS011;9517;51.174;4.160;2023-06-14T03:59:33;14.93;;;6.90;;
18776;SDS011;9517;51.174;4.160;2023-06-14T04:02:00;18.13;;;6.93;;
18776;SDS011;9517;51.174;4.160;2023-06-14T04:04:27;16.27;;;6.73;;
18776;SDS011;9517;51.174;4.160;2023-06-14T04:06:54;20.50;;;7.33;;
18776;SDS011;9517;51.174;4.160;2023-06-14T04:09:23;14.27;;;6.40;;
18776;SDS011;9517;51.174;4.160;2023-06-14T04:11:51;15.27;;;6.77;;
18776;SDS011;9517;51.174;4.160;2023-06-14T04:14:19;15.17;;;7.03;;
18776;SDS011;9517;51.174;4.160;2023-06-14T04:16:47;20.17;;;6.73;;
18776;SDS011;9517;51.174;4.160;2023-06-14T04:19:15;16.37;;;7.73;;
18776;SDS011;9517;51.174;4.160;2023-06-14T04:21:42;18.73;;;7.03;;
18776;SDS011;9517;51.174;4.160;2023-06-14T04:24:09;15.90;;;7.10;;
18776;SDS011;9517;51.174;4.160;2023-06-14T04:26:39;17.40;;;7.60;;
18776;SDS011;9517;51.174;4.160;2023-06-14T04:29:06;16.13;;;7.23;;
18776;SDS011;9517;51.174;4.160;2023-06-14T04:31:34;17.33;;;6.90;;
18776;SDS011;9517;51.174;4.160;2023-06-14T04:34:04;17.20;;;7.80;;
18776;SDS011;9517;51.174;4.160;2023-06-14T04:36:32;13.63;;;7.10;;
18776;SDS011;9517;51.174;4.160;2023-06-14T04:39:02;14.80;;;7.20;;
18776;SDS011;9517;51.174;4.160;2023-06-14T04:41:29;22.00;;;7.53;;
18776;SDS011;9517;51.174;4.160;2023-06-14T04:43:57;17.87;;;7.67;;
18776;SDS011;9517;51.174;4.160;2023-06-14T04:46:26;17.07;;;7.63;;
18776;SDS011;9517;51.174;4.160;2023-06-14T04:48:55;16.30;;;7.83;;
18776;SDS011;9517;51.174;4.160;2023-06-14T04:51:23;21.37;;;7.17;;
18776;SDS011;9517;51.174;4.160;2023-06-14T04:53:54;17.17;;;7.23;;
18776;SDS011;9517;51.174;4.160;2023-06-14T04:56:23;15.80;;;7.30;;
18776;SDS011;9517;51.174;4.160;2023-06-14T04:58:51;18.33;;;7.53;;
18776;SDS011;9517;51.174;4.160;2023-06-14T05:01:19;20.20;;;7.10;;
18776;SDS011;9517;51.174;4.160;2023-06-14T05:03:48;22.97;;;8.30;;
18776;SDS011;9517;51.174;4.160;2023-06-14T05:06:17;19.83;;;7.53;;
18776;SDS011;9517;51.174;4.160;2023-06-14T05:08:44;18.40;;;7.67;;
18776;SDS011;9517;51.174;4.160;2023-06-14T05:11:11;19.37;;;7.93;;
18776;SDS011;9517;51.174;4.160;2023-06-14T05:13:38;20.80;;;7.43;;
18776;SDS011;9517;51.174;4.160;2023-06-14T05:16:06;15.93;;;8.47;;
18776;SDS011;9517;51.174;4.160;2023-06-14T05:18:33;15.33;;;6.97;;
18776;SDS011;9517;51.174;4.160;2023-06-14T05:21:00;16.07;;;6.97;;
18776;SDS011;9517;51.174;4.160;2023-06-14T05:23:28;18.50;;;7.20;;
18776;SDS011;9517;51.174;4.160;2023-06-14T05:25:56;15.73;;;7.23;;
18776;SDS011;9517;51.174;4.160;2023-06-14T05:28:23;19.50;;;7.77;;
18776;SDS011;9517;51.174;4.160;2023-06-14T05:30:50;19.27;;;7.43;;
18776;SDS011;9517;51.174;4.160;2023-06-14T05:33:17;17.60;;;7.13;;
18776;SDS011;9517;51.174;4.160;2023-06-14T05:35:45;14.37;;;6.80;;
18776;SDS011;9517;51.174;4.160;2023-06-14T05:38:12;17.83;;;7.20;;
18776;SDS011;9517;51.174;4.160;2023-06-14T05:40:40;18.13;;;7.57;;
18776;SDS011;9517;51.174;4.160;2023-06-14T05:43:07;15.20;;;6.90;;
18776;SDS011;9517;51.174;4.160;2023-06-14T05:45:35;19.17;;;7.50;;
18776;SDS011;9517;51.174;4.160;2023-06-14T05:48:02;17.37;;;7.20;;
18776;SDS011;9517;51.174;4.160;2023-06-14T05:50:30;23.63;;;8.03;;
18776;SDS011;9517;51.174;4.160;2023-06-14T05:52:57;21.23;;;7.97;;
18776;SDS011;9517;51.174;4.160;2023-06-14T05:55:24;22.33;;;7.83;;
18776;SDS011;9517;51.174;4.160;2023-06-14T05:57:53;23.73;;;7.90;;
18776;SDS011;9517;51.174;4.160;2023-06-14T06:00:20;16.47;;;7.57;;
18776;SDS011;9517;51.174;4.160;2023-06-14T06:02:47;25.53;;;7.60;;
18776;SDS011;9517;51.174;4.160;2023-06-14T06:05:14;15.50;;;7.53;;
18776;SDS011;9517;51.174;4.160;2023-06-14T06:07:42;15.70;;;7.17;;
18776;SDS011;9517;51.174;4.160;2023-06-14T06:10:10;18.90;;;7.87;;
18776;SDS011;9517;51.174;4.160;2023-06-14T06:12:37;16.43;;;7.00;;
18776;SDS011;9517;51.174;4.160;2023-06-14T06:15:06;16.33;;;7.03;;
18776;SDS011;9517;51.174;4.160;2023-06-14T06:17:37;19.67;;;8.63;;
18776;SDS011;9517;51.174;4.160;2023-06-14T06:20:04;23.93;;;8.20;;
18776;SDS011;9517;51.174;4.160;2023-06-14T06:22:33;21.57;;;8.53;;
18776;SDS011;9517;51.174;4.160;2023-06-14T06:25:00;18.07;;;7.77;;
18776;SDS011;9517;51.174;4.160;2023-06-14T06:27:28;14.40;;;7.13;;
18776;SDS011;9517;51.174;4.160;2023-06-14T06:29:55;19.97;;;7.57;;
18776;SDS011;9517;51.174;4.160;2023-06-14T06:32:23;17.97;;;7.90;;
18776;SDS011;9517;51.174;4.160;2023-06-14T06:34:51;23.97;;;8.67;;
18776;SDS011;9517;51.174;4.160;2023-06-14T06:37:19;20.93;;;8.30;;
18776;SDS011;9517;51.174;4.160;2023-06-14T06:39:46;17.37;;;7.43;;
18776;SDS011;9517;51.174;4.160;2023-06-14T06:42:13;17.50;;;8.10;;
18776;SDS011;9517;51.174;4.160;2023-06-14T06:44:40;26.60;;;8.10;;
18776;SDS011;9517;51.174;4.160;2023-06-14T06:47:07;19.73;;;7.93;;
18776;SDS011;9517;51.174;4.160;2023-06-14T06:49:37;19.13;;;8.20;;
18776;SDS011;9517;51.174;4.160;2023-06-14T06:52:05;20.93;;;8.00;;
18776;SDS011;9517;51.174;4.160;2023-06-14T06:54:33;21.07;;;8.47;;
18776;SDS011;9517;51.174;4.160;2023-06-14T06:57:01;17.53;;;8.30;;
18776;SDS011;9517;51.174;4.160;2023-06-14T06:59:28;26.03;;;8.37;;
18776;SDS011;9517;51.174;4.160;2023-06-14T07:01:55;20.17;;;7.40;;
18776;SDS011;9517;51.174;4.160;2023-06-14T07:04:22;20.53;;;8.23;;
18776;SDS011;9517;51.174;4.160;2023-06-14T07:06:51;19.47;;;8.23;;
18776;SDS011;9517;51.174;4.160;2023-06-14T07:09:18;18.50;;;7.53;;
18776;SDS011;9517;51.174;4.160;2023-06-14T07:11:46;19.53;;;7.20;;
18776;SDS011;9517;51.174;4.160;2023-06-14T07:14:13;18.37;;;7.37;;
18776;SDS011;9517;51.174;4.160;2023-06-14T07:16:40;23.53;;;8.03;;
18776;SDS011;9517;51.174;4.160;2023-06-14T07:19:08;18.92;;;7.18;;
18776;SDS011;9517;51.174;4.160;2023-06-14T07:21:35;18.15;;;7.05;;
18776;SDS011;9517;51.174;4.160;2023-06-14T07:24:05;23.60;;;7.63;;
18776;SDS011;9517;51.174;4.160;2023-06-14T07:26:33;18.85;;;7.20;;
18776;SDS011;9517;51.174;4.160;2023-06-14T07:29:00;20.00;;;7.18;;
18776;SDS011;9517;51.174;4.160;2023-06-14T07:31:28;19.13;;;7.05;;
18776;SDS011;9517;51.174;4.160;2023-06-14T07:33:55;21.80;;;7.40;;
18776;SDS011;9517;51.174;4.160;2023-06-14T07:36:22;22.87;;;8.23;;
18776;SDS011;9517;51.174;4.160;2023-06-14T07:38:50;15.30;;;8.10;;
18776;SDS011;9517;51.174;4.160;2023-06-14T07:41:19;26.50;;;8.35;;
18776;SDS011;9517;51.174;4.160;2023-06-14T07:43:46;18.45;;;8.82;;
18776;SDS011;9517;51.174;4.160;2023-06-14T07:46:14;20.55;;;9.20;;
18776;SDS011;9517;51.174;4.160;2023-06-14T07:48:41;25.55;;;9.18;;
18776;SDS011;9517;51.174;4.160;2023-06-14T07:51:08;30.90;;;8.88;;
18776;SDS011;9517;51.174;4.160;2023-06-14T07:53:36;21.05;;;8.32;;
18776;SDS011;9517;51.174;4.160;2023-06-14T07:56:03;22.90;;;8.98;;
18776;SDS011;9517;51.174;4.160;2023-06-14T07:58:32;21.60;;;8.93;;
18776;SDS011;9517;51.174;4.160;2023-06-14T08:00:59;21.13;;;10.73;;
18776;SDS011;9517;51.174;4.160;2023-06-14T08:03:31;19.73;;;8.98;;
18776;SDS011;9517;51.174;4.160;2023-06-14T08:05:58;17.55;;;9.45;;
18776;SDS011;9517;51.174;4.160;2023-06-14T08:08:25;22.35;;;9.75;;
18776;SDS011;9517;51.174;4.160;2023-06-14T08:10:52;21.25;;;10.00;;
18776;SDS011;9517;51.174;4.160;2023-06-14T08:13:20;21.08;;;9.13;;
18776;SDS011;9517;51.174;4.160;2023-06-14T08:15:48;21.17;;;9.02;;
18776;SDS011;9517;51.174;4.160;2023-06-14T08:18:16;20.13;;;10.38;;
18776;SDS011;9517;51.174;4.160;2023-06-14T08:20:43;27.17;;;10.63;;
18776;SDS011;9517;51.174;4.160;2023-06-14T08:23:10;22.63;;;9.63;;
18776;SDS011;9517;51.174;4.160;2023-06-14T08:25:38;24.80;;;11.10;;
18776;SDS011;9517;51.174;4.160;2023-06-14T08:28:05;20.00;;;10.38;;
18776;SDS011;9517;51.174;4.160;2023-06-14T08:30:33;23.45;;;10.45;;
18776;SDS011;9517;51.174;4.160;2023-06-14T08:33:01;20.50;;;9.82;;
18776;SDS011;9517;51.174;4.160;2023-06-14T08:35:28;18.35;;;9.48;;
18776;SDS011;9517;51.174;4.160;2023-06-14T08:37:55;20.77;;;9.63;;
18776;SDS011;9517;51.174;4.160;2023-06-14T08:40:23;20.98;;;9.10;;
18776;SDS011;9517;51.174;4.160;2023-06-14T08:42:51;19.35;;;9.00;;
18776;SDS011;9517;51.174;4.160;2023-06-14T08:45:19;20.65;;;8.55;;
18776;SDS011;9517;51.174;4.160;2023-06-14T08:47:47;19.42;;;8.00;;
18776;SDS011;9517;51.174;4.160;2023-06-14T08:50:20;17.85;;;8.82;;
18776;SDS011;9517;51.174;4.160;2023-06-14T08:52:50;16.13;;;8.88;;
18776;SDS011;9517;51.174;4.160;2023-06-14T08:55:22;17.63;;;9.30;;
18776;SDS011;9517;51.174;4.160;2023-06-14T08:57:56;22.63;;;8.90;;
18776;SDS011;9517;51.174;4.160;2023-06-14T09:00:24;19.30;;;8.25;;
18776;SDS011;9517;51.174;4.160;2023-06-14T09:02:53;18.70;;;8.27;;
18776;SDS011;9517;51.174;4.160;2023-06-14T09:05:24;20.20;;;8.10;;
18776;SDS011;9517;51.174;4.160;2023-06-14T09:07:52;16.35;;;8.60;;
18776;SDS011;9517;51.174;4.160;2023-06-14T09:10:20;18.10;;;8.23;;
18776;SDS011;9517;51.174;4.160;2023-06-14T09:12:48;17.83;;;7.60;;
18776;SDS011;9517;51.174;4.160;2023-06-14T09:15:15;21.85;;;7.25;;
18776;SDS011;9517;51.174;4.160;2023-06-14T09:17:43;22.73;;;7.82;;
18776;SDS011;9517;51.174;4.160;2023-06-14T09:20:10;17.00;;;7.88;;
18776;SDS011;9517;51.174;4.160;2023-06-14T09:22:40;16.45;;;7.93;;
18776;SDS011;9517;51.174;4.160;2023-06-14T09:25:08;14.63;;;7.55;;
18776;SDS011;9517;51.174;4.160;2023-06-14T09:27:37;16.95;;;7.20;;
18776;SDS011;9517;51.174;4.160;2023-06-14T09:30:06;21.15;;;7.80;;
18776;SDS011;9517;51.174;4.160;2023-06-14T09:32:36;15.60;;;6.80;;
18776;SDS011;9517;51.174;4.160;2023-06-14T09:35:05;22.05;;;7.93;;
18776;SDS011;9517;51.174;4.160;2023-06-14T09:37:33;18.45;;;7.20;;
18776;SDS011;9517;51.174;4.160;2023-06-14T09:40:05;19.60;;;7.88;;
18776;SDS011;9517;51.174;4.160;2023-06-14T09:42:33;17.25;;;7.07;;
18776;SDS011;9517;51.174;4.160;2023-06-14T09:45:01;18.50;;;7.43;;
18776;SDS011;9517;51.174;4.160;2023-06-14T09:47:29;18.52;;;6.85;;
18776;SDS011;9517;51.174;4.160;2023-06-14T09:49:56;16.80;;;7.28;;
18776;SDS011;9517;51.174;4.160;2023-06-14T09:52:25;18.25;;;7.50;;
18776;SDS011;9517;51.174;4.160;2023-06-14T09:54:54;18.48;;;7.82;;
18776;SDS011;9517;51.174;4.160;2023-06-14T09:57:23;12.25;;;5.78;;
18776;SDS011;9517;51.174;4.160;2023-06-14T09:59:53;12.55;;;6.88;;
18776;SDS011;9517;51.174;4.160;2023-06-14T10:02:25;14.98;;;6.30;;
18776;SDS011;9517;51.174;4.160;2023-06-14T10:04:58;19.65;;;6.70;;
18776;SDS011;9517;51.174;4.160;2023-06-14T10:07:32;15.20;;;7.38;;
18776;SDS011;9517;51.174;4.160;2023-06-14T10:10:01;18.92;;;6.25;;
18776;SDS011;9517;51.174;4.160;2023-06-14T10:12:31;11.30;;;5.82;;
18776;SDS011;9517;51.174;4.160;2023-06-14T10:14:59;15.40;;;6.20;;
18776;SDS011;9517;51.174;4.160;2023-06-14T10:17:31;13.00;;;5.78;;
18776;SDS011;9517;51.174;4.160;2023-06-14T10:20:07;12.35;;;6.22;;
18776;SDS011;9517;51.174;4.160;2023-06-14T10:22:44;12.57;;;5.68;;
18776;SDS011;9517;51.174;4.160;2023-06-14T10:25:26;13.90;;;5.90;;
18776;SDS011;9517;51.174;4.160;2023-06-14T10:28:03;12.35;;;6.25;;
18776;SDS011;9517;51.174;4.160;2023-06-14T10:31:06;11.35;;;5.75;;
18776;SDS011;9517;51.174;4.160;2023-06-14T10:33:34;20.23;;;6.38;;
18776;SDS011;9517;51.174;4.160;2023-06-14T10:38:59;13.85;;;5.97;;
18776;SDS011;9517;51.174;4.160;2023-06-14T10:41:30;13.65;;;6.05;;
18776;SDS011;9517;51.174;4.160;2023-06-14T10:47:10;13.90;;;6.10;;
18776;SDS011;9517;51.174;4.160;2023-06-14T10:49:49;14.48;;;6.13;;
18776;SDS011;9517;51.174;4.160;2023-06-14T10:52:20;15.70;;;6.60;;
18776;SDS011;9517;51.174;4.160;2023-06-14T10:54:55;16.48;;;6.10;;
18776;SDS011;9517;51.174;4.160;2023-06-14T10:57:26;19.45;;;6.18;;
18776;SDS011;9517;51.174;4.160;2023-06-14T10:59:55;11.98;;;5.57;;
18776;SDS011;9517;51.174;4.160;2023-06-14T11:05:41;11.45;;;5.63;;
18776;SDS011;9517;51.174;4.160;2023-06-14T11:11:31;16.90;;;5.80;;
18776;SDS011;9517;51.174;4.160;2023-06-14T11:14:00;13.75;;;4.90;;
18776;SDS011;9517;51.174;4.160;2023-06-14T11:16:29;19.40;;;5.57;;
18776;SDS011;9517;51.174;4.160;2023-06-14T11:19:00;12.63;;;5.40;;
18776;SDS011;9517;51.174;4.160;2023-06-14T11:21:28;11.15;;;5.18;;
18776;SDS011;9517;51.174;4.160;2023-06-14T11:23:58;12.75;;;5.43;;
18776;SDS011;9517;51.174;4.160;2023-06-14T11:26:26;14.40;;;5.22;;
18776;SDS011;9517;51.174;4.160;2023-06-14T11:28:57;15.05;;;5.28;;
18776;SDS011;9517;51.174;4.160;2023-06-14T11:31:25;13.25;;;5.13;;
18776;SDS011;9517;51.174;4.160;2023-06-14T11:33:55;12.82;;;4.57;;
18776;SDS011;9517;51.174;4.160;2023-06-14T11:36:22;10.48;;;4.82;;
18776;SDS011;9517;51.174;4.160;2023-06-14T11:38:57;12.32;;;4.55;;
18776;SDS011;9517;51.174;4.160;2023-06-14T11:41:25;13.13;;;5.20;;
18776;SDS011;9517;51.174;4.160;2023-06-14T11:43:59;11.55;;;4.93;;
18776;SDS011;9517;51.174;4.160;2023-06-14T11:46:27;12.57;;;5.18;;
18776;SDS011;9517;51.174;4.160;2023-06-14T11:48:55;13.10;;;5.10;;
18776;SDS011;9517;51.174;4.160;2023-06-14T11:51:23;10.38;;;4.90;;
18776;SDS011;9517;51.174;4.160;2023-06-14T11:53:50;15.38;;;4.78;;
18776;SDS011;9517;51.174;4.160;2023-06-14T11:56:18;14.25;;;5.05;;
18776;SDS011;9517;51.174;4.160;2023-06-14T11:58:45;12.32;;;4.60;;
18776;SDS011;9517;51.174;4.160;2023-06-14T12:01:14;9.52;;;4.55;;
18776;SDS011;9517;51.174;4.160;2023-06-14T12:03:47;14.25;;;4.82;;
18776;SDS011;9517;51.174;4.160;2023-06-14T12:06:16;14.30;;;4.80;;
18776;SDS011;9517;51.174;4.160;2023-06-14T12:08:55;11.35;;;4.63;;
18776;SDS011;9517;51.174;4.160;2023-06-14T12:11:22;14.93;;;4.82;;
18776;SDS011;9517;51.174;4.160;2023-06-14T12:13:49;10.10;;;5.28;;
18776;SDS011;9517;51.174;4.160;2023-06-14T12:16:16;15.40;;;5.25;;
18776;SDS011;9517;51.174;4.160;2023-06-14T12:18:46;14.18;;;5.30;;
18776;SDS011;9517;51.174;4.160;2023-06-14T12:21:13;11.88;;;4.53;;
18776;SDS011;9517;51.174;4.160;2023-06-14T12:23:43;12.38;;;4.55;;
18776;SDS011;9517;51.174;4.160;2023-06-14T12:26:12;13.80;;;4.78;;
18776;SDS011;9517;51.174;4.160;2023-06-14T12:28:40;12.80;;;4.90;;
18776;SDS011;9517;51.174;4.160;2023-06-14T12:31:08;15.40;;;4.88;;
18776;SDS011;9517;51.174;4.160;2023-06-14T12:33:36;11.40;;;4.80;;
18776;SDS011;9517;51.174;4.160;2023-06-14T12:36:06;13.50;;;4.75;;
18776;SDS011;9517;51.174;4.160;2023-06-14T12:38:33;12.10;;;4.60;;
18776;SDS011;9517;51.174;4.160;2023-06-14T12:41:02;14.75;;;4.43;;
18776;SDS011;9517;51.174;4.160;2023-06-14T12:43:30;12.68;;;4.35;;
18776;SDS011;9517;51.174;4.160;2023-06-14T12:45:57;11.88;;;4.72;;
18776;SDS011;9517;51.174;4.160;2023-06-14T12:48:24;9.68;;;4.22;;
18776;SDS011;9517;51.174;4.160;2023-06-14T12:50:52;11.20;;;4.38;;
18776;SDS011;9517;51.174;4.160;2023-06-14T12:53:19;12.57;;;4.43;;
18776;SDS011;9517;51.174;4.160;2023-06-14T12:55:48;10.00;;;4.15;;
18776;SDS011;9517;51.174;4.160;2023-06-14T12:58:16;13.18;;;4.40;;
18776;SDS011;9517;51.174;4.160;2023-06-14T13:00:44;11.50;;;4.32;;
18776;SDS011;9517;51.174;4.160;2023-06-14T13:03:12;10.75;;;4.32;;
18776;SDS011;9517;51.174;4.160;2023-06-14T13:05:39;12.45;;;4.55;;
18776;SDS011;9517;51.174;4.160;2023-06-14T13:08:06;10.35;;;4.47;;
18776;SDS011;9517;51.174;4.160;2023-06-14T13:10:34;12.10;;;3.70;;
18776;SDS011;9517;51.174;4.160;2023-06-14T13:13:02;8.75;;;3.78;;
18776;SDS011;9517;51.174;4.160;2023-06-14T13:15:30;10.80;;;3.60;;
18776;SDS011;9517;51.174;4.160;2023-06-14T13:17:57;13.05;;;3.70;;
18776;SDS011;9517;51.174;4.160;2023-06-14T13:20:24;8.25;;;3.60;;
18776;SDS011;9517;51.174;4.160;2023-06-14T13:22:51;11.80;;;4.03;;
18776;SDS011;9517;51.174;4.160;2023-06-14T13:25:19;8.63;;;3.42;;
18776;SDS011;9517;51.174;4.160;2023-06-14T13:27:47;10.15;;;4.07;;
18776;SDS011;9517;51.174;4.160;2023-06-14T13:30:14;10.95;;;3.67;;
18776;SDS011;9517;51.174;4.160;2023-06-14T13:32:43;9.68;;;3.22;;
18776;SDS011;9517;51.174;4.160;2023-06-14T13:35:10;8.45;;;3.25;;
18776;SDS011;9517;51.174;4.160;2023-06-14T13:37:37;9.57;;;3.10;;
18776;SDS011;9517;51.174;4.160;2023-06-14T13:40:05;8.10;;;3.33;;
18776;SDS011;9517;51.174;4.160;2023-06-14T13:42:33;10.07;;;3.58;;
18776;SDS011;9517;51.174;4.160;2023-06-14T13:45:01;10.30;;;3.55;;
18776;SDS011;9517;51.174;4.160;2023-06-14T13:47:28;8.48;;;3.15;;
18776;SDS011;9517;51.174;4.160;2023-06-14T13:49:57;9.38;;;2.97;;
18776;SDS011;9517;51.174;4.160;2023-06-14T13:52:24;8.32;;;2.72;;
18776;SDS011;9517;51.174;4.160;2023-06-14T13:54:52;12.25;;;2.90;;
18776;SDS011;9517;51.174;4.160;2023-06-14T13:57:19;10.38;;;2.83;;
18776;SDS011;9517;51.174;4.160;2023-06-14T13:59:46;9.65;;;2.75;;
18776;SDS011;9517;51.174;4.160;2023-06-14T14:02:14;7.95;;;2.60;;
18776;SDS011;9517;51.174;4.160;2023-06-14T14:04:41;8.60;;;2.78;;
18776;SDS011;9517;51.174;4.160;2023-06-14T14:07:09;8.30;;;2.42;;
18776;SDS011;9517;51.174;4.160;2023-06-14T14:09:36;6.28;;;2.50;;
18776;SDS011;9517;51.174;4.160;2023-06-14T14:12:04;15.80;;;2.53;;
18776;SDS011;9517;51.174;4.160;2023-06-14T14:14:32;5.35;;;2.20;;
18776;SDS011;9517;51.174;4.160;2023-06-14T14:16:59;9.45;;;2.40;;
18776;SDS011;9517;51.174;4.160;2023-06-14T14:19:26;6.25;;;2.40;;
18776;SDS011;9517;51.174;4.160;2023-06-14T14:21:53;10.68;;;2.47;;
18776;SDS011;9517;51.174;4.160;2023-06-14T14:24:22;6.90;;;2.50;;
18776;SDS011;9517;51.174;4.160;2023-06-14T14:26:49;7.18;;;2.00;;
18776;SDS011;9517;51.174;4.160;2023-06-14T14:29:18;4.47;;;1.88;;
18776;SDS011;9517;51.174;4.160;2023-06-14T14:31:45;4.63;;;1.92;;
18776;SDS011;9517;51.174;4.160;2023-06-14T14:34:12;6.20;;;2.00;;
18776;SDS011;9517;51.174;4.160;2023-06-14T14:36:39;9.00;;;2.15;;
18776;SDS011;9517;51.174;4.160;2023-06-14T14:39:07;7.20;;;1.77;;
18776;SDS011;9517;51.174;4.160;2023-06-14T14:41:36;4.80;;;1.90;;
18776;SDS011;9517;51.174;4.160;2023-06-14T14:44:03;6.10;;;1.83;;
18776;SDS011;9517;51.174;4.160;2023-06-14T14:46:31;5.90;;;2.00;;
18776;SDS011;9517;51.174;4.160;2023-06-14T14:48:58;7.03;;;2.17;;
18776;SDS011;9517;51.174;4.160;2023-06-14T14:51:26;8.65;;;1.98;;
18776;SDS011;9517;51.174;4.160;2023-06-14T14:53:53;7.15;;;2.20;;
18776;SDS011;9517;51.174;4.160;2023-06-14T14:56:21;7.75;;;2.60;;
18776;SDS011;9517;51.174;4.160;2023-06-14T14:58:50;7.53;;;2.15;;
18776;SDS011;9517;51.174;4.160;2023-06-14T15:01:17;8.07;;;2.60;;
18776;SDS011;9517;51.174;4.160;2023-06-14T15:03:44;6.10;;;2.35;;
18776;SDS011;9517;51.174;4.160;2023-06-14T15:06:11;6.60;;;2.33;;
18776;SDS011;9517;51.174;4.160;2023-06-14T15:08:38;7.65;;;2.33;;